sensor_id;sensor_type;location;lat;lon;timestamp;temperature;humidity
9987;DHT22;5033;46.310;11.214;2023-08-06T00:01:56;17.90;99.90
9987;DHT22;5033;46.310;11.214;2023-08-06T00:04:23;17.90;99.90
9987;DHT22;5033;46.310;11.214;2023-08-06T00:06:50;17.90;99.90
9987;DHT22;5033;46.310;11.214;2023-08-06T00:09:17;17.80;99.90
9987;DHT22;5033;46.310;11.214;2023-08-06T00:11:44;17.80;99.90
9987;DHT22;5033;46.310;11.214;2023-08-06T00:14:13;17.80;99.90
9987;DHT22;5033;46.310;11.214;2023-08-06T00:16:43;17.80;99.90
9987;DHT22;5033;46.310;11.214;2023-08-06T00:19:11;17.90;99.90
9987;DHT22;5033;46.310;11.214;2023-08-06T00:21:38;17.80;99.90
9987;DHT22;5033;46.310;11.214;2023-08-06T00:24:05;17.90;99.90
9987;DHT22;5033;46.310;11.214;2023-08-06T00:26:32;17.90;99.90
9987;DHT22;5033;46.310;11.214;2023-08-06T00:28:59;17.80;99.90
9987;DHT22;5033;46.310;11.214;2023-08-06T00:31:27;17.90;99.90
9987;DHT22;5033;46.310;11.214;2023-08-06T00:33:54;17.80;99.90
9987;DHT22;5033;46.310;11.214;2023-08-06T00:36:21;17.90;99.90
9987;DHT22;5033;46.310;11.214;2023-08-06T00:38:48;17.80;99.90
9987;DHT22;5033;46.310;11.214;2023-08-06T00:41:15;17.80;99.90
9987;DHT22;5033;46.310;11.214;2023-08-06T00:43:42;17.80;99.90
9987;DHT22;5033;46.310;11.214;2023-08-06T00:46:09;17.80;99.90
9987;DHT22;5033;46.310;11.214;2023-08-06T00:48:38;17.80;99.90
9987;DHT22;5033;46.310;11.214;2023-08-06T00:51:06;17.80;99.90
9987;DHT22;5033;46.310;11.214;2023-08-06T00:53:33;17.80;99.90
9987;DHT22;5033;46.310;11.214;2023-08-06T00:56:00;17.80;99.90
9987;DHT22;5033;46.310;11.214;2023-08-06T00:58:28;17.80;99.90
9987;DHT22;5033;46.310;11.214;2023-08-06T01:00:55;17.70;99.90
9987;DHT22;5033;46.310;11.214;2023-08-06T01:03:22;17.70;99.90
9987;DHT22;5033;46.310;11.214;2023-08-06T01:05:51;17.60;99.90
9987;DHT22;5033;46.310;11.214;2023-08-06T01:08:28;17.60;99.90
9987;DHT22;5033;46.310;11.214;2023-08-06T01:11:08;17.60;99.90
9987;DHT22;5033;46.310;11.214;2023-08-06T01:13:42;17.60;99.90
9987;DHT22;5033;46.310;11.214;2023-08-06T01:16:10;17.60;99.90
9987;DHT22;5033;46.310;11.214;2023-08-06T01:18:38;17.60;99.90
9987;DHT22;5033;46.310;11.214;2023-08-06T01:21:08;17.60;99.90
9987;DHT22;5033;46.310;11.214;2023-08-06T01:23:35;17.60;99.90
9987;DHT22;5033;46.310;11.214;2023-08-06T01:26:11;17.60;99.90
9987;DHT22;5033;46.310;11.214;2023-08-06T01:28:46;17.50;99.90
9987;DHT22;5033;46.310;11.214;2023-08-06T01:31:18;17.50;99.90
9987;DHT22;5033;46.310;11.214;2023-08-06T01:33:48;17.50;99.90
9987;DHT22;5033;46.310;11.214;2023-08-06T01:36:17;17.50;99.90
9987;DHT22;5033;46.310;11.214;2023-08-06T01:38:45;17.50;99.90
9987;DHT22;5033;46.310;11.214;2023-08-06T01:41:12;17.50;99.90
9987;DHT22;5033;46.310;11.214;2023-08-06T01:43:39;17.50;99.90
9987;DHT22;5033;46.310;11.214;2023-08-06T01:46:06;17.60;99.90
9987;DHT22;5033;46.310;11.214;2023-08-06T01:48:33;17.60;99.90
9987;DHT22;5033;46.310;11.214;2023-08-06T01:51:00;17.60;99.90
9987;DHT22;5033;46.310;11.214;2023-08-06T01:53:29;17.50;99.90
9987;DHT22;5033;46.310;11.214;2023-08-06T01:55:57;17.50;99.90
9987;DHT22;5033;46.310;11.214;2023-08-06T01:58:24;17.40;99.90
9987;DHT22;5033;46.310;11.214;2023-08-06T02:00:51;17.40;99.90
9987;DHT22;5033;46.310;11.214;2023-08-06T02:03:18;17.40;99.90
9987;DHT22;5033;46.310;11.214;2023-08-06T02:05:45;17.40;99.90
9987;DHT22;5033;46.310;11.214;2023-08-06T02:08:12;17.30;99.90
9987;DHT22;5033;46.310;11.214;2023-08-06T02:10:40;17.30;99.90
9987;DHT22;5033;46.310;11.214;2023-08-06T02:13:08;17.30;99.90
9987;DHT22;5033;46.310;11.214;2023-08-06T02:15:35;17.30;99.90
9987;DHT22;5033;46.310;11.214;2023-08-06T02:18:02;17.30;99.90
9987;DHT22;5033;46.310;11.214;2023-08-06T02:20:29;17.30;99.90
9987;DHT22;5033;46.310;11.214;2023-08-06T02:22:56;17.30;99.90
9987;DHT22;5033;46.310;11.214;2023-08-06T02:25:24;17.20;99.90
9987;DHT22;5033;46.310;11.214;2023-08-06T02:27:52;17.20;99.90
9987;DHT22;5033;46.310;11.214;2023-08-06T02:30:19;17.20;99.90
9987;DHT22;5033;46.310;11.214;2023-08-06T02:32:48;17.20;99.90
9987;DHT22;5033;46.310;11.214;2023-08-06T02:35:15;17.20;99.90
9987;DHT22;5033;46.310;11.214;2023-08-06T02:37:42;17.20;99.90
9987;DHT22;5033;46.310;11.214;2023-08-06T02:40:10;17.10;99.90
9987;DHT22;5033;46.310;11.214;2023-08-06T02:42:37;17.10;99.90
9987;DHT22;5033;46.310;11.214;2023-08-06T02:45:07;17.10;99.90
9987;DHT22;5033;46.310;11.214;2023-08-06T02:47:34;17.00;99.90
9987;DHT22;5033;46.310;11.214;2023-08-06T02:50:01;16.90;99.90
9987;DHT22;5033;46.310;11.214;2023-08-06T02:52:28;16.90;99.90
9987;DHT22;5033;46.310;11.214;2023-08-06T02:54:55;16.80;99.90
9987;DHT22;5033;46.310;11.214;2023-08-06T02:57:25;16.80;99.90
9987;DHT22;5033;46.310;11.214;2023-08-06T02:59:52;16.70;99.90
9987;DHT22;5033;46.310;11.214;2023-08-06T03:02:21;16.70;99.90
9987;DHT22;5033;46.310;11.214;2023-08-06T03:04:48;16.80;99.90
9987;DHT22;5033;46.310;11.214;2023-08-06T03:07:15;16.80;99.90
9987;DHT22;5033;46.310;11.214;2023-08-06T03:09:42;16.70;99.90
9987;DHT22;5033;46.310;11.214;2023-08-06T03:12:09;16.70;99.90
9987;DHT22;5033;46.310;11.214;2023-08-06T03:14:36;16.60;99.90
9987;DHT22;5033;46.310;11.214;2023-08-06T03:17:03;16.60;99.90
9987;DHT22;5033;46.310;11.214;2023-08-06T03:19:32;16.50;99.90
9987;DHT22;5033;46.310;11.214;2023-08-06T03:21:59;16.50;99.90
9987;DHT22;5033;46.310;11.214;2023-08-06T03:24:26;16.30;99.90
9987;DHT22;5033;46.310;11.214;2023-08-06T03:26:53;16.30;99.90
9987;DHT22;5033;46.310;11.214;2023-08-06T03:29:20;16.20;99.90
9987;DHT22;5033;46.310;11.214;2023-08-06T03:31:47;16.20;99.90
9987;DHT22;5033;46.310;11.214;2023-08-06T03:34:14;16.20;99.90
9987;DHT22;5033;46.310;11.214;2023-08-06T03:36:43;16.10;99.90
9987;DHT22;5033;46.310;11.214;2023-08-06T03:39:10;16.20;99.90
9987;DHT22;5033;46.310;11.214;2023-08-06T03:41:37;16.10;99.90
9987;DHT22;5033;46.310;11.214;2023-08-06T03:44:04;16.10;99.90
9987;DHT22;5033;46.310;11.214;2023-08-06T03:46:32;16.10;99.90
9987;DHT22;5033;46.310;11.214;2023-08-06T03:49:00;16.10;99.90
9987;DHT22;5033;46.310;11.214;2023-08-06T03:51:27;16.00;99.90
9987;DHT22;5033;46.310;11.214;2023-08-06T03:53:55;16.00;99.90
9987;DHT22;5033;46.310;11.214;2023-08-06T03:56:22;16.00;99.90
9987;DHT22;5033;46.310;11.214;2023-08-06T03:58:49;16.00;99.90
9987;DHT22;5033;46.310;11.214;2023-08-06T04:01:16;16.00;99.90
9987;DHT22;5033;46.310;11.214;2023-08-06T04:03:43;16.00;99.90
9987;DHT22;5033;46.310;11.214;2023-08-06T04:06:10;16.00;99.90
9987;DHT22;5033;46.310;11.214;2023-08-06T04:08:37;16.00;99.90
9987;DHT22;5033;46.310;11.214;2023-08-06T04:11:06;15.90;99.90
9987;DHT22;5033;46.310;11.214;2023-08-06T04:13:33;15.90;99.90
9987;DHT22;5033;46.310;11.214;2023-08-06T04:16:01;15.90;99.90
9987;DHT22;5033;46.310;11.214;2023-08-06T04:18:28;15.90;99.90
9987;DHT22;5033;46.310;11.214;2023-08-06T04:20:55;15.90;99.90
9987;DHT22;5033;46.310;11.214;2023-08-06T04:23:23;15.80;99.90
9987;DHT22;5033;46.310;11.214;2023-08-06T04:25:50;15.90;99.90
9987;DHT22;5033;46.310;11.214;2023-08-06T04:28:19;15.80;99.90
9987;DHT22;5033;46.310;11.214;2023-08-06T04:30:46;15.80;99.90
9987;DHT22;5033;46.310;11.214;2023-08-06T04:33:13;15.80;99.90
9987;DHT22;5033;46.310;11.214;2023-08-06T04:35:40;15.80;99.90
9987;DHT22;5033;46.310;11.214;2023-08-06T04:38:07;15.80;99.90
9987;DHT22;5033;46.310;11.214;2023-08-06T04:40:34;15.80;99.90
9987;DHT22;5033;46.310;11.214;2023-08-06T04:43:01;15.80;99.90
9987;DHT22;5033;46.310;11.214;2023-08-06T04:45:30;15.80;99.90
9987;DHT22;5033;46.310;11.214;2023-08-06T04:47:57;15.90;99.90
9987;DHT22;5033;46.310;11.214;2023-08-06T04:50:24;15.90;99.90
9987;DHT22;5033;46.310;11.214;2023-08-06T04:52:51;15.90;99.90
9987;DHT22;5033;46.310;11.214;2023-08-06T04:55:18;16.00;99.90
9987;DHT22;5033;46.310;11.214;2023-08-06T04:57:45;16.00;99.90
9987;DHT22;5033;46.310;11.214;2023-08-06T05:00:12;16.10;99.90
9987;DHT22;5033;46.310;11.214;2023-08-06T05:02:41;16.30;99.90
9987;DHT22;5033;46.310;11.214;2023-08-06T05:05:08;16.60;99.90
9987;DHT22;5033;46.310;11.214;2023-08-06T05:07:35;16.80;99.90
9987;DHT22;5033;46.310;11.214;2023-08-06T05:10:02;17.00;99.90
9987;DHT22;5033;46.310;11.214;2023-08-06T05:12:30;17.20;99.90
9987;DHT22;5033;46.310;11.214;2023-08-06T05:14:57;17.40;99.90
9987;DHT22;5033;46.310;11.214;2023-08-06T05:17:24;17.50;99.90
9987;DHT22;5033;46.310;11.214;2023-08-06T05:19:52;17.60;99.90
9987;DHT22;5033;46.310;11.214;2023-08-06T05:22:19;17.80;99.90
9987;DHT22;5033;46.310;11.214;2023-08-06T05:24:46;18.00;99.90
9987;DHT22;5033;46.310;11.214;2023-08-06T05:27:13;18.10;99.90
9987;DHT22;5033;46.310;11.214;2023-08-06T05:29:40;18.30;99.90
9987;DHT22;5033;46.310;11.214;2023-08-06T05:32:09;18.40;99.90
9987;DHT22;5033;46.310;11.214;2023-08-06T05:34:36;18.60;99.90
9987;DHT22;5033;46.310;11.214;2023-08-06T05:37:05;18.80;99.90
9987;DHT22;5033;46.310;11.214;2023-08-06T05:39:32;19.10;99.90
9987;DHT22;5033;46.310;11.214;2023-08-06T05:41:59;19.40;99.90
9987;DHT22;5033;46.310;11.214;2023-08-06T05:44:26;19.60;99.90
9987;DHT22;5033;46.310;11.214;2023-08-06T05:46:53;19.80;99.90
9987;DHT22;5033;46.310;11.214;2023-08-06T05:49:20;19.80;99.90
9987;DHT22;5033;46.310;11.214;2023-08-06T05:51:47;19.90;99.90
9987;DHT22;5033;46.310;11.214;2023-08-06T05:54:16;20.10;99.90
9987;DHT22;5033;46.310;11.214;2023-08-06T05:56:43;20.20;99.90
9987;DHT22;5033;46.310;11.214;2023-08-06T05:59:10;20.20;99.90
9987;DHT22;5033;46.310;11.214;2023-08-06T06:01:37;20.40;99.90
9987;DHT22;5033;46.310;11.214;2023-08-06T06:04:04;20.50;99.90
9987;DHT22;5033;46.310;11.214;2023-08-06T06:06:31;20.30;99.90
9987;DHT22;5033;46.310;11.214;2023-08-06T06:08:58;20.10;99.90
9987;DHT22;5033;46.310;11.214;2023-08-06T06:11:26;19.90;99.90
9987;DHT22;5033;46.310;11.214;2023-08-06T06:13:53;19.70;99.90
9987;DHT22;5033;46.310;11.214;2023-08-06T06:16:20;19.60;99.90
9987;DHT22;5033;46.310;11.214;2023-08-06T06:18:47;19.60;99.90
9987;DHT22;5033;46.310;11.214;2023-08-06T06:21:14;19.70;99.90
9987;DHT22;5033;46.310;11.214;2023-08-06T06:23:41;19.70;99.90
9987;DHT22;5033;46.310;11.214;2023-08-06T06:26:08;19.80;99.90
9987;DHT22;5033;46.310;11.214;2023-08-06T06:28:37;19.80;99.90
9987;DHT22;5033;46.310;11.214;2023-08-06T06:31:04;19.90;99.90
9987;DHT22;5033;46.310;11.214;2023-08-06T06:33:31;20.00;99.90
9987;DHT22;5033;46.310;11.214;2023-08-06T06:35:58;20.00;99.90
9987;DHT22;5033;46.310;11.214;2023-08-06T06:38:25;20.00;99.90
9987;DHT22;5033;46.310;11.214;2023-08-06T06:40:56;20.00;99.90
9987;DHT22;5033;46.310;11.214;2023-08-06T06:43:23;20.10;99.90
9987;DHT22;5033;46.310;11.214;2023-08-06T06:45:56;20.20;99.90
9987;DHT22;5033;46.310;11.214;2023-08-06T06:48:23;20.30;99.90
9987;DHT22;5033;46.310;11.214;2023-08-06T06:50:50;20.30;99.90
9987;DHT22;5033;46.310;11.214;2023-08-06T06:53:17;20.30;99.90
9987;DHT22;5033;46.310;11.214;2023-08-06T06:55:44;20.50;99.90
9987;DHT22;5033;46.310;11.214;2023-08-06T06:58:14;20.80;99.90
9987;DHT22;5033;46.310;11.214;2023-08-06T07:00:42;21.00;99.90
9987;DHT22;5033;46.310;11.214;2023-08-06T07:03:10;21.10;99.90
9987;DHT22;5033;46.310;11.214;2023-08-06T07:05:37;21.10;99.90
9987;DHT22;5033;46.310;11.214;2023-08-06T07:08:04;21.10;99.90
9987;DHT22;5033;46.310;11.214;2023-08-06T07:10:31;21.00;99.90
9987;DHT22;5033;46.310;11.214;2023-08-06T07:12:58;21.00;99.90
9987;DHT22;5033;46.310;11.214;2023-08-06T07:15:26;21.20;99.90
9987;DHT22;5033;46.310;11.214;2023-08-06T07:17:53;21.50;99.90
9987;DHT22;5033;46.310;11.214;2023-08-06T07:20:21;21.60;99.90
9987;DHT22;5033;46.310;11.214;2023-08-06T07:22:48;21.70;99.90
9987;DHT22;5033;46.310;11.214;2023-08-06T07:25:16;21.70;99.90
9987;DHT22;5033;46.310;11.214;2023-08-06T07:27:43;21.70;99.90
9987;DHT22;5033;46.310;11.214;2023-08-06T07:30:10;21.90;99.90
9987;DHT22;5033;46.310;11.214;2023-08-06T07:32:37;22.00;99.90
9987;DHT22;5033;46.310;11.214;2023-08-06T07:35:05;22.20;99.90
9987;DHT22;5033;46.310;11.214;2023-08-06T07:37:35;22.30;99.90
9987;DHT22;5033;46.310;11.214;2023-08-06T07:40:02;22.30;99.90
9987;DHT22;5033;46.310;11.214;2023-08-06T07:42:30;22.30;99.90
9987;DHT22;5033;46.310;11.214;2023-08-06T07:44:58;22.30;99.90
9987;DHT22;5033;46.310;11.214;2023-08-06T07:47:25;22.30;99.90
9987;DHT22;5033;46.310;11.214;2023-08-06T07:49:52;22.40;99.90
9987;DHT22;5033;46.310;11.214;2023-08-06T07:52:19;22.30;99.90
9987;DHT22;5033;46.310;11.214;2023-08-06T07:54:48;22.30;99.90
9987;DHT22;5033;46.310;11.214;2023-08-06T07:57:15;22.30;99.90
9987;DHT22;5033;46.310;11.214;2023-08-06T07:59:42;22.20;99.90
9987;DHT22;5033;46.310;11.214;2023-08-06T08:02:09;22.30;99.90
9987;DHT22;5033;46.310;11.214;2023-08-06T08:04:36;22.50;99.90
9987;DHT22;5033;46.310;11.214;2023-08-06T08:07:04;22.60;99.90
9987;DHT22;5033;46.310;11.214;2023-08-06T08:09:31;22.80;99.90
9987;DHT22;5033;46.310;11.214;2023-08-06T08:12:00;23.00;99.90
9987;DHT22;5033;46.310;11.214;2023-08-06T08:14:28;23.10;99.90
9987;DHT22;5033;46.310;11.214;2023-08-06T08:17:00;23.20;99.90
9987;DHT22;5033;46.310;11.214;2023-08-06T08:19:27;23.30;99.90
9987;DHT22;5033;46.310;11.214;2023-08-06T08:21:54;23.50;99.90
9987;DHT22;5033;46.310;11.214;2023-08-06T08:24:22;23.50;99.90
9987;DHT22;5033;46.310;11.214;2023-08-06T08:26:50;23.50;99.90
9987;DHT22;5033;46.310;11.214;2023-08-06T08:29:19;23.60;99.90
9987;DHT22;5033;46.310;11.214;2023-08-06T08:31:46;23.70;99.90
9987;DHT22;5033;46.310;11.214;2023-08-06T08:34:14;23.70;99.90
9987;DHT22;5033;46.310;11.214;2023-08-06T08:36:41;23.90;99.90
9987;DHT22;5033;46.310;11.214;2023-08-06T08:39:09;24.20;99.90
9987;DHT22;5033;46.310;11.214;2023-08-06T08:41:37;24.20;99.90
9987;DHT22;5033;46.310;11.214;2023-08-06T08:44:06;24.50;99.90
9987;DHT22;5033;46.310;11.214;2023-08-06T08:46:37;24.30;99.90
9987;DHT22;5033;46.310;11.214;2023-08-06T08:49:05;24.30;99.90
9987;DHT22;5033;46.310;11.214;2023-08-06T08:51:34;24.20;99.90
9987;DHT22;5033;46.310;11.214;2023-08-06T08:54:03;24.20;99.90
9987;DHT22;5033;46.310;11.214;2023-08-06T08:56:30;24.20;99.90
9987;DHT22;5033;46.310;11.214;2023-08-06T08:58:58;24.00;99.90
9987;DHT22;5033;46.310;11.214;2023-08-06T09:01:26;24.00;99.90
9987;DHT22;5033;46.310;11.214;2023-08-06T09:03:57;24.20;99.90
9987;DHT22;5033;46.310;11.214;2023-08-06T09:06:25;24.50;99.90
9987;DHT22;5033;46.310;11.214;2023-08-06T09:09:00;24.60;99.90
9987;DHT22;5033;46.310;11.214;2023-08-06T09:11:29;24.60;99.90
9987;DHT22;5033;46.310;11.214;2023-08-06T09:14:04;24.50;99.90
9987;DHT22;5033;46.310;11.214;2023-08-06T09:16:34;24.70;99.90
9987;DHT22;5033;46.310;11.214;2023-08-06T09:19:08;24.80;99.90
9987;DHT22;5033;46.310;11.214;2023-08-06T09:21:37;24.80;99.90
9987;DHT22;5033;46.310;11.214;2023-08-06T09:24:08;24.90;99.90
9987;DHT22;5033;46.310;11.214;2023-08-06T09:26:36;25.00;99.90
9987;DHT22;5033;46.310;11.214;2023-08-06T09:29:05;25.20;99.90
9987;DHT22;5033;46.310;11.214;2023-08-06T09:31:33;25.30;99.90
9987;DHT22;5033;46.310;11.214;2023-08-06T09:34:01;25.30;99.90
9987;DHT22;5033;46.310;11.214;2023-08-06T09:36:30;25.30;99.90
9987;DHT22;5033;46.310;11.214;2023-08-06T09:38:57;25.20;99.90
9987;DHT22;5033;46.310;11.214;2023-08-06T09:41:27;25.30;99.90
9987;DHT22;5033;46.310;11.214;2023-08-06T09:43:55;25.40;99.90
9987;DHT22;5033;46.310;11.214;2023-08-06T09:46:22;25.50;99.90
9987;DHT22;5033;46.310;11.214;2023-08-06T09:48:50;25.60;99.90
9987;DHT22;5033;46.310;11.214;2023-08-06T09:51:17;25.60;99.90
9987;DHT22;5033;46.310;11.214;2023-08-06T09:53:47;25.60;99.90
9987;DHT22;5033;46.310;11.214;2023-08-06T09:56:17;25.70;99.90
9987;DHT22;5033;46.310;11.214;2023-08-06T09:58:47;25.80;99.90
9987;DHT22;5033;46.310;11.214;2023-08-06T10:01:16;25.80;99.90
9987;DHT22;5033;46.310;11.214;2023-08-06T10:03:44;25.80;99.90
9987;DHT22;5033;46.310;11.214;2023-08-06T10:06:12;25.90;99.90
9987;DHT22;5033;46.310;11.214;2023-08-06T10:08:39;26.00;99.90
9987;DHT22;5033;46.310;11.214;2023-08-06T10:11:09;25.90;99.90
9987;DHT22;5033;46.310;11.214;2023-08-06T10:13:38;25.60;99.90
9987;DHT22;5033;46.310;11.214;2023-08-06T10:16:06;25.80;99.90
9987;DHT22;5033;46.310;11.214;2023-08-06T10:18:33;26.40;99.90
9987;DHT22;5033;46.310;11.214;2023-08-06T10:21:02;26.70;99.90
9987;DHT22;5033;46.310;11.214;2023-08-06T10:23:33;27.10;99.90
9987;DHT22;5033;46.310;11.214;2023-08-06T10:26:04;27.20;99.90
9987;DHT22;5033;46.310;11.214;2023-08-06T10:28:36;27.30;99.90
9987;DHT22;5033;46.310;11.214;2023-08-06T10:31:03;27.40;99.90
9987;DHT22;5033;46.310;11.214;2023-08-06T10:33:41;27.40;99.90
9987;DHT22;5033;46.310;11.214;2023-08-06T10:36:09;27.50;99.90
9987;DHT22;5033;46.310;11.214;2023-08-06T10:38:44;27.80;99.90
9987;DHT22;5033;46.310;11.214;2023-08-06T10:41:23;28.00;99.90
9987;DHT22;5033;46.310;11.214;2023-08-06T10:43:52;28.30;99.90
9987;DHT22;5033;46.310;11.214;2023-08-06T10:46:31;28.40;99.90
9987;DHT22;5033;46.310;11.214;2023-08-06T10:48:58;28.00;99.90
9987;DHT22;5033;46.310;11.214;2023-08-06T10:51:25;28.00;99.90
9987;DHT22;5033;46.310;11.214;2023-08-06T10:53:53;28.00;99.90
9987;DHT22;5033;46.310;11.214;2023-08-06T10:56:22;28.10;99.90
9987;DHT22;5033;46.310;11.214;2023-08-06T10:58:53;28.30;99.90
9987;DHT22;5033;46.310;11.214;2023-08-06T11:01:21;28.30;99.90
9987;DHT22;5033;46.310;11.214;2023-08-06T11:03:49;28.20;99.90
9987;DHT22;5033;46.310;11.214;2023-08-06T11:06:19;28.20;99.90
9987;DHT22;5033;46.310;11.214;2023-08-06T11:08:48;28.40;99.10
9987;DHT22;5033;46.310;11.214;2023-08-06T11:11:16;28.40;99.90
9987;DHT22;5033;46.310;11.214;2023-08-06T11:13:45;28.00;94.50
9987;DHT22;5033;46.310;11.214;2023-08-06T11:16:14;28.00;95.30
9987;DHT22;5033;46.310;11.214;2023-08-06T11:18:42;28.20;94.10
9987;DHT22;5033;46.310;11.214;2023-08-06T11:21:09;28.30;95.20
9987;DHT22;5033;46.310;11.214;2023-08-06T11:23:37;28.60;95.30
9987;DHT22;5033;46.310;11.214;2023-08-06T11:26:05;28.90;95.90
9987;DHT22;5033;46.310;11.214;2023-08-06T11:28:32;29.10;96.80
9987;DHT22;5033;46.310;11.214;2023-08-06T11:30:59;29.20;96.90
9987;DHT22;5033;46.310;11.214;2023-08-06T11:33:29;28.60;94.50
9987;DHT22;5033;46.310;11.214;2023-08-06T11:35:57;28.00;93.90
9987;DHT22;5033;46.310;11.214;2023-08-06T11:38:25;27.50;95.00
9987;DHT22;5033;46.310;11.214;2023-08-06T11:40:54;27.20;96.50
9987;DHT22;5033;46.310;11.214;2023-08-06T11:43:21;27.10;97.40
9987;DHT22;5033;46.310;11.214;2023-08-06T11:45:49;26.90;98.20
9987;DHT22;5033;46.310;11.214;2023-08-06T11:48:19;26.70;98.60
9987;DHT22;5033;46.310;11.214;2023-08-06T11:50:47;26.50;97.90
9987;DHT22;5033;46.310;11.214;2023-08-06T11:53:14;26.40;98.40
9987;DHT22;5033;46.310;11.214;2023-08-06T11:55:42;26.20;99.70
9987;DHT22;5033;46.310;11.214;2023-08-06T11:58:10;26.00;99.90
9987;DHT22;5033;46.310;11.214;2023-08-06T12:00:38;25.80;99.90
9987;DHT22;5033;46.310;11.214;2023-08-06T12:03:05;25.70;99.90
9987;DHT22;5033;46.310;11.214;2023-08-06T12:05:33;25.50;99.90
9987;DHT22;5033;46.310;11.214;2023-08-06T12:08:02;25.10;99.90
9987;DHT22;5033;46.310;11.214;2023-08-06T12:10:31;24.70;99.90
9987;DHT22;5033;46.310;11.214;2023-08-06T12:12:59;24.40;99.90
9987;DHT22;5033;46.310;11.214;2023-08-06T12:15:26;24.20;99.90
9987;DHT22;5033;46.310;11.214;2023-08-06T12:17:53;24.20;99.90
9987;DHT22;5033;46.310;11.214;2023-08-06T12:20:20;24.50;99.90
9987;DHT22;5033;46.310;11.214;2023-08-06T12:22:47;24.90;99.90
9987;DHT22;5033;46.310;11.214;2023-08-06T12:25:16;25.20;99.90
9987;DHT22;5033;46.310;11.214;2023-08-06T12:27:44;25.50;99.90
9987;DHT22;5033;46.310;11.214;2023-08-06T12:30:12;25.70;99.90
9987;DHT22;5033;46.310;11.214;2023-08-06T12:32:39;25.80;99.90
9987;DHT22;5033;46.310;11.214;2023-08-06T12:35:07;25.70;99.90
9987;DHT22;5033;46.310;11.214;2023-08-06T12:37:35;25.60;99.90
9987;DHT22;5033;46.310;11.214;2023-08-06T12:40:04;25.70;99.90
9987;DHT22;5033;46.310;11.214;2023-08-06T12:42:33;25.80;99.90
9987;DHT22;5033;46.310;11.214;2023-08-06T12:45:00;25.90;99.90
9987;DHT22;5033;46.310;11.214;2023-08-06T12:47:28;25.70;99.90
9987;DHT22;5033;46.310;11.214;2023-08-06T12:49:55;25.90;99.90
9987;DHT22;5033;46.310;11.214;2023-08-06T12:52:24;25.80;99.90
9987;DHT22;5033;46.310;11.214;2023-08-06T12:54:51;26.00;99.90
9987;DHT22;5033;46.310;11.214;2023-08-06T12:57:18;26.00;99.90
9987;DHT22;5033;46.310;11.214;2023-08-06T12:59:47;25.90;99.90
9987;DHT22;5033;46.310;11.214;2023-08-06T13:02:14;25.70;99.90
9987;DHT22;5033;46.310;11.214;2023-08-06T13:04:41;25.50;99.90
9987;DHT22;5033;46.310;11.214;2023-08-06T13:07:08;25.40;99.90
9987;DHT22;5033;46.310;11.214;2023-08-06T13:09:35;25.30;99.90
9987;DHT22;5033;46.310;11.214;2023-08-06T13:12:03;25.20;99.90
9987;DHT22;5033;46.310;11.214;2023-08-06T13:14:31;25.20;99.90
9987;DHT22;5033;46.310;11.214;2023-08-06T13:17:00;25.00;99.90
9987;DHT22;5033;46.310;11.214;2023-08-06T13:19:27;24.70;99.90
9987;DHT22;5033;46.310;11.214;2023-08-06T13:22:00;24.50;99.90
9987;DHT22;5033;46.310;11.214;2023-08-06T13:24:29;24.40;99.90
9987;DHT22;5033;46.310;11.214;2023-08-06T13:26:56;24.50;99.90
9987;DHT22;5033;46.310;11.214;2023-08-06T13:29:24;24.60;99.90
9987;DHT22;5033;46.310;11.214;2023-08-06T13:31:51;24.70;99.90
9987;DHT22;5033;46.310;11.214;2023-08-06T13:34:19;24.70;99.90
9987;DHT22;5033;46.310;11.214;2023-08-06T13:36:46;24.60;99.90
9987;DHT22;5033;46.310;11.214;2023-08-06T13:39:13;24.80;99.90
9987;DHT22;5033;46.310;11.214;2023-08-06T13:41:43;24.90;99.90
9987;DHT22;5033;46.310;11.214;2023-08-06T13:44:10;25.10;99.90
9987;DHT22;5033;46.310;11.214;2023-08-06T13:46:40;25.20;99.90
9987;DHT22;5033;46.310;11.214;2023-08-06T13:49:07;25.60;99.90
9987;DHT22;5033;46.310;11.214;2023-08-06T13:51:35;26.10;99.90
9987;DHT22;5033;46.310;11.214;2023-08-06T13:54:03;26.20;99.90
9987;DHT22;5033;46.310;11.214;2023-08-06T13:56:31;26.10;99.90
9987;DHT22;5033;46.310;11.214;2023-08-06T13:58:58;26.20;99.90
9987;DHT22;5033;46.310;11.214;2023-08-06T14:01:25;26.20;99.90
9987;DHT22;5033;46.310;11.214;2023-08-06T14:03:52;26.20;99.90
9987;DHT22;5033;46.310;11.214;2023-08-06T14:06:20;26.20;99.90
9987;DHT22;5033;46.310;11.214;2023-08-06T14:08:49;26.10;99.90
9987;DHT22;5033;46.310;11.214;2023-08-06T14:11:16;26.10;99.90
9987;DHT22;5033;46.310;11.214;2023-08-06T14:13:43;26.20;99.90
9987;DHT22;5033;46.310;11.214;2023-08-06T14:16:10;26.30;99.90
9987;DHT22;5033;46.310;11.214;2023-08-06T14:18:37;26.40;99.90
9987;DHT22;5033;46.310;11.214;2023-08-06T14:21:04;26.40;99.90
9987;DHT22;5033;46.310;11.214;2023-08-06T14:23:31;26.20;99.90
9987;DHT22;5033;46.310;11.214;2023-08-06T14:26:00;26.20;99.90
9987;DHT22;5033;46.310;11.214;2023-08-06T14:28:27;26.20;99.90
9987;DHT22;5033;46.310;11.214;2023-08-06T14:30:54;26.30;99.90
9987;DHT22;5033;46.310;11.214;2023-08-06T14:33:21;26.60;99.90
9987;DHT22;5033;46.310;11.214;2023-08-06T14:35:48;26.60;99.90
9987;DHT22;5033;46.310;11.214;2023-08-06T14:38:15;26.70;99.90
9987;DHT22;5033;46.310;11.214;2023-08-06T14:40:43;26.90;99.90
9987;DHT22;5033;46.310;11.214;2023-08-06T14:43:12;27.20;99.90
9987;DHT22;5033;46.310;11.214;2023-08-06T14:45:39;27.40;99.90
9987;DHT22;5033;46.310;11.214;2023-08-06T14:48:06;27.50;99.90
9987;DHT22;5033;46.310;11.214;2023-08-06T14:50:34;27.60;99.90
9987;DHT22;5033;46.310;11.214;2023-08-06T14:53:04;27.80;99.90
9987;DHT22;5033;46.310;11.214;2023-08-06T14:55:32;27.90;99.90
9987;DHT22;5033;46.310;11.214;2023-08-06T14:58:01;27.90;99.90
9987;DHT22;5033;46.310;11.214;2023-08-06T15:00:30;27.80;99.00
9987;DHT22;5033;46.310;11.214;2023-08-06T15:02:57;27.90;99.90
9987;DHT22;5033;46.310;11.214;2023-08-06T15:05:24;28.00;99.90
9987;DHT22;5033;46.310;11.214;2023-08-06T15:07:53;28.10;99.40
9987;DHT22;5033;46.310;11.214;2023-08-06T15:10:20;28.00;99.90
9987;DHT22;5033;46.310;11.214;2023-08-06T15:12:48;27.70;99.90
9987;DHT22;5033;46.310;11.214;2023-08-06T15:15:15;27.60;99.90
9987;DHT22;5033;46.310;11.214;2023-08-06T15:17:43;27.30;99.90
9987;DHT22;5033;46.310;11.214;2023-08-06T15:20:11;27.40;99.90
9987;DHT22;5033;46.310;11.214;2023-08-06T15:22:38;27.30;99.90
9987;DHT22;5033;46.310;11.214;2023-08-06T15:25:06;27.10;99.90
9987;DHT22;5033;46.310;11.214;2023-08-06T15:27:33;26.90;99.90
9987;DHT22;5033;46.310;11.214;2023-08-06T15:30:00;26.80;99.90
9987;DHT22;5033;46.310;11.214;2023-08-06T15:32:28;26.70;99.90
9987;DHT22;5033;46.310;11.214;2023-08-06T15:34:56;26.40;99.90
9987;DHT22;5033;46.310;11.214;2023-08-06T15:37:23;26.20;99.90
9987;DHT22;5033;46.310;11.214;2023-08-06T15:39:51;26.00;99.90
9987;DHT22;5033;46.310;11.214;2023-08-06T15:42:18;26.00;99.90
9987;DHT22;5033;46.310;11.214;2023-08-06T15:44:45;25.80;99.90
9987;DHT22;5033;46.310;11.214;2023-08-06T15:47:12;25.70;99.90
9987;DHT22;5033;46.310;11.214;2023-08-06T15:49:39;25.60;99.90